Mississagi — CFG8050 — position and weather

sailwx.info

Track history (hours):
 
Tides and Currents Weather Stations Pressure Air Temp Water Temp Dewpoint Dewpoint Depression Visibility Wind Speed Wind Dir Waves Ship Positions

Mississagi

Last reported at 2014-Aug-29 11:33 UTC. Time now 2014-Aug-29 20:26 UTC.
Position N 45°00' W 085°58'.

Length 189 m; draft 7.2 m.

Type: Cargo ship. MMSI: 316004940.

Date/timePositionNaut miles runAvg speedWind from/ knotsBaromVisibWave heightAir tempDewpointWater temp
2014-Aug-29 11:33N 45°00' W 085°58'1111.1
2014-Aug-29 10:33N 45°09' W 085°49'1111.3
2014-Aug-29 09:33N 45°19' W 085°40'1111.3
2014-Aug-29 08:33N 45°28' W 085°31'1111.5
2014-Aug-29 07:33N 45°37' W 085°21'1111.4
2014-Aug-29 06:33N 45°45' W 085°10'9 8.7
2014-Aug-29 05:33N 45°50' W 084°59'1212.0
2014-Aug-29 04:33N 45°48' W 084°42'1211.7
2014-Aug-29 03:33N 45°42' W 084°28'1211.5
2014-Aug-29 02:33N 45°40' W 084°11'1211.9
2014-Aug-29 01:33N 45°35' W 083°56'  
2014-Aug-26 12:12N 45°41' W 083°33'711.4
2014-Aug-26 11:33N 45°47' W 083°41'1111.3
2014-Aug-26 10:33N 45°55' W 083°52'4 4.1
2014-Aug-26 09:33N 45°59' W 083°53'0 0.0
2014-Aug-26 08:33N 45°59' W 083°53'0 0.0
2014-Aug-26 06:33N 45°59' W 083°53'0 0.0
2014-Aug-26 05:25N 45°59' W 083°53'0 0.0
2014-Aug-26 04:33N 45°59' W 083°53'0 0.0
2014-Aug-26 03:31N 45°59' W 083°53'  
2014-Aug-23 21:32N 45°37' W 084°05'1111.7
2014-Aug-23 20:33N 45°41' W 084°20'1211.6
2014-Aug-23 19:33N 45°46' W 084°36'84 2.5
2014-Aug-22 09:24N 44°55' W 086°11'1211.8
2014-Aug-22 08:24N 45°01' W 085°56'1011.7
2014-Aug-22 07:33N 45°09' W 085°49'1211.6
2014-Aug-22 06:33N 45°19' W 085°40'1211.6
2014-Aug-22 05:33N 45°28' W 085°30'1111.4
2014-Aug-22 04:33N 45°37' W 085°20'1111.3
2014-Aug-22 03:33N 45°45' W 085°09'8 8.2
2014-Aug-22 02:33N 45°50' W 084°59'1212.0
2014-Aug-22 01:33N 45°49' W 084°42'1211.7
2014-Aug-22 00:33N 45°51' W 084°26'1211.8
2014-Aug-21 23:33N 45°51' W 084°09'3 0.1
2014-Aug-20 05:24N 45°49' W 084°05'911.1
2014-Aug-20 04:33N 45°51' W 084°18'1111.3
2014-Aug-20 03:33N 45°51' W 084°34'1110.7
2014-Aug-20 02:33N 45°49' W 084°50'1010.4
2014-Aug-20 01:33N 45°53' W 085°03'9 8.7
2014-Aug-20 00:33N 46°02' W 085°08'1 1.1
2014-Aug-19 23:33N 46°02' W 085°06'0 0.0
2014-Aug-19 22:33N 46°02' W 085°06'0 0.0
2014-Aug-19 21:33N 46°02' W 085°06'0 0.0
2014-Aug-19 20:33N 46°02' W 085°06'0 0.0
2014-Aug-19 19:33N 46°02' W 085°06'0 0.0
2014-Aug-19 18:33N 46°02' W 085°06'2 2.0
2014-Aug-19 17:33N 46°01' W 085°09'0 0.0
2014-Aug-19 16:33N 46°01' W 085°09'5 5.0
2014-Aug-19 15:33N 45°56' W 085°08'1111.5
2014-Aug-19 14:33N 45°45' W 085°10'1212.4
2014-Aug-19 13:33N 45°35' W 085°20'1212.4
2014-Aug-19 12:33N 45°25' W 085°31'1212.3
2014-Aug-19 11:33N 45°15' W 085°41'  
Track history (hours):
 
Tides and Currents Weather Stations Pressure Air Temp Water Temp Dewpoint Dewpoint Depression Visibility Wind Speed Wind Dir Waves Ship Positions

Mississagi

Last reported at 2014-Aug-29 11:33 UTC. Time now 2014-Aug-29 20:26 UTC.
Position N 45°00' W 085°58'.

Length 189 m; draft 7.2 m.

Type: Cargo ship. MMSI: 316004940.

Date/timePositionNaut miles runAvg speedWind from/ knotsBaromVisibWave heightAir tempDewpointWater temp
2014-Aug-29 11:33N 45°00' W 085°58'1111.1
2014-Aug-29 10:33N 45°09' W 085°49'1111.3
2014-Aug-29 09:33N 45°19' W 085°40'1111.3
2014-Aug-29 08:33N 45°28' W 085°31'1111.5
2014-Aug-29 07:33N 45°37' W 085°21'1111.4
2014-Aug-29 06:33N 45°45' W 085°10'9 8.7
2014-Aug-29 05:33N 45°50' W 084°59'1212.0
2014-Aug-29 04:33N 45°48' W 084°42'1211.7
2014-Aug-29 03:33N 45°42' W 084°28'1211.5
2014-Aug-29 02:33N 45°40' W 084°11'1211.9
2014-Aug-29 01:33N 45°35' W 083°56'  
2014-Aug-26 12:12N 45°41' W 083°33'711.4
2014-Aug-26 11:33N 45°47' W 083°41'1111.3
2014-Aug-26 10:33N 45°55' W 083°52'4 4.1
2014-Aug-26 09:33N 45°59' W 083°53'0 0.0
2014-Aug-26 08:33N 45°59' W 083°53'0 0.0
2014-Aug-26 06:33N 45°59' W 083°53'0 0.0
2014-Aug-26 05:25N 45°59' W 083°53'0 0.0
2014-Aug-26 04:33N 45°59' W 083°53'0 0.0
2014-Aug-26 03:31N 45°59' W 083°53'  
2014-Aug-23 21:32N 45°37' W 084°05'1111.7
2014-Aug-23 20:33N 45°41' W 084°20'1211.6
2014-Aug-23 19:33N 45°46' W 084°36'84 2.5
2014-Aug-22 09:24N 44°55' W 086°11'1211.8
2014-Aug-22 08:24N 45°01' W 085°56'1011.7
2014-Aug-22 07:33N 45°09' W 085°49'1211.6
2014-Aug-22 06:33N 45°19' W 085°40'1211.6
2014-Aug-22 05:33N 45°28' W 085°30'1111.4
2014-Aug-22 04:33N 45°37' W 085°20'1111.3
2014-Aug-22 03:33N 45°45' W 085°09'8 8.2
2014-Aug-22 02:33N 45°50' W 084°59'1212.0
2014-Aug-22 01:33N 45°49' W 084°42'1211.7
2014-Aug-22 00:33N 45°51' W 084°26'1211.8
2014-Aug-21 23:33N 45°51' W 084°09'3 0.1
2014-Aug-20 05:24N 45°49' W 084°05'911.1
2014-Aug-20 04:33N 45°51' W 084°18'1111.3
2014-Aug-20 03:33N 45°51' W 084°34'1110.7
2014-Aug-20 02:33N 45°49' W 084°50'1010.4
2014-Aug-20 01:33N 45°53' W 085°03'9 8.7
2014-Aug-20 00:33N 46°02' W 085°08'1 1.1
2014-Aug-19 23:33N 46°02' W 085°06'0 0.0
2014-Aug-19 22:33N 46°02' W 085°06'0 0.0
2014-Aug-19 21:33N 46°02' W 085°06'0 0.0
2014-Aug-19 20:33N 46°02' W 085°06'0 0.0
2014-Aug-19 19:33N 46°02' W 085°06'0 0.0
2014-Aug-19 18:33N 46°02' W 085°06'2 2.0
2014-Aug-19 17:33N 46°01' W 085°09'0 0.0
2014-Aug-19 16:33N 46°01' W 085°09'5 5.0
2014-Aug-19 15:33N 45°56' W 085°08'1111.5
2014-Aug-19 14:33N 45°45' W 085°10'1212.4
2014-Aug-19 13:33N 45°35' W 085°20'1212.4
2014-Aug-19 12:33N 45°25' W 085°31'1212.3
2014-Aug-19 11:33N 45°15' W 085°41'  

Dump ship's entire track history